createdAt,value
2022-09-17T00:01:30.646Z,15.31
2022-09-17T00:04:34.190Z,15.36
2022-09-17T00:07:36.635Z,15.27
2022-09-17T00:10:41.825Z,15.40
2022-09-17T00:13:45.076Z,15.38
2022-09-17T00:16:49.345Z,15.48
2022-09-17T00:19:52.428Z,15.33
2022-09-17T00:22:55.278Z,15.33
2022-09-17T00:25:59.081Z,15.13
2022-09-17T00:29:02.189Z,15.21
2022-09-17T00:32:04.883Z,15.12
2022-09-17T00:35:07.905Z,15.03
2022-09-17T00:38:11.065Z,15.10
2022-09-17T00:41:13.887Z,15.09
2022-09-17T00:44:55.991Z,14.78
2022-09-17T00:48:01.040Z,14.92
2022-09-17T00:51:04.772Z,14.93
2022-09-17T00:54:10.424Z,14.93
2022-09-17T00:57:12.973Z,15.01
2022-09-17T01:00:16.624Z,14.88
2022-09-17T01:03:19.295Z,14.96
2022-09-17T01:06:46.928Z,15.03
2022-09-17T01:10:00.037Z,15.03
2022-09-17T01:13:24.610Z,14.96
2022-09-17T01:16:33.591Z,15.03
2022-09-17T01:19:54.557Z,14.96
2022-09-17T01:23:10.548Z,14.92
2022-09-17T01:26:51.121Z,15.00
2022-09-17T01:30:14.511Z,14.87
2022-09-17T01:33:50.902Z,14.80
2022-09-17T01:37:00.760Z,14.85
2022-09-17T01:40:07.851Z,14.91
2022-09-17T01:43:17.889Z,14.89
2022-09-17T01:46:26.785Z,14.75
2022-09-17T01:49:30.337Z,14.95
2022-09-17T01:52:36.168Z,15.01
2022-09-17T01:55:39.600Z,15.08
2022-09-17T01:58:47.286Z,14.74
2022-09-17T02:01:53.235Z,14.87
2022-09-17T02:05:01.504Z,14.86
2022-09-17T02:08:42.289Z,14.81
2022-09-17T02:11:47.378Z,14.58
2022-09-17T02:14:55.048Z,14.62
2022-09-17T02:18:28.408Z,14.66
2022-09-17T02:21:44.222Z,14.67
2022-09-17T02:25:22.994Z,14.61
2022-09-17T02:28:40.635Z,14.50
2022-09-17T02:31:43.171Z,14.55
2022-09-17T02:34:46.334Z,14.22
2022-09-17T02:37:48.813Z,14.36
2022-09-17T02:40:59.266Z,14.47
2022-09-17T02:44:14.429Z,14.41
2022-09-17T02:47:43.332Z,14.28
2022-09-17T02:51:03.142Z,14.14
2022-09-17T02:54:05.952Z,14.36
2022-09-17T02:57:16.641Z,14.27
2022-09-17T03:00:21.646Z,14.30
2022-09-17T03:03:31.127Z,14.36
2022-09-17T03:06:33.910Z,14.40
2022-09-17T03:09:36.421Z,14.46
2022-09-17T03:12:39.773Z,14.36
2022-09-17T03:15:46.361Z,14.35
2022-09-17T03:18:49.273Z,14.13
2022-09-17T03:21:51.785Z,14.23
2022-09-17T03:24:54.574Z,14.22
2022-09-17T03:27:57.114Z,14.28
2022-09-17T03:31:00.205Z,14.36
2022-09-17T03:34:02.796Z,14.33
2022-09-17T03:37:05.626Z,14.19
2022-09-17T03:40:08.601Z,14.15
2022-09-17T03:43:11.486Z,14.29
2022-09-17T03:46:14.084Z,14.29
2022-09-17T03:49:16.911Z,14.12
2022-09-17T03:52:19.518Z,14.10
2022-09-17T03:55:22.261Z,14.12
2022-09-17T03:58:24.820Z,14.16
2022-09-17T04:01:28.451Z,14.18
2022-09-17T04:04:31.286Z,14.15
2022-09-17T04:07:33.835Z,14.03
2022-09-17T04:10:37.006Z,13.83
2022-09-17T04:13:39.643Z,13.90
2022-09-17T04:16:42.430Z,13.90
2022-09-17T04:19:45.175Z,13.90
2022-09-17T04:22:48.024Z,13.85
2022-09-17T04:25:50.544Z,13.80
2022-09-17T04:28:53.316Z,13.74
2022-09-17T04:31:55.817Z,13.93
2022-09-17T04:34:58.591Z,13.69
2022-09-17T04:38:01.213Z,13.76
2022-09-17T04:41:06.999Z,13.86
2022-09-17T04:44:09.505Z,13.81
2022-09-17T04:47:12.317Z,13.63
2022-09-17T04:50:15.178Z,13.60
2022-09-17T04:53:18.773Z,13.76
2022-09-17T04:56:21.202Z,13.78
2022-09-17T04:59:24.071Z,13.71
2022-09-17T05:02:26.706Z,13.60
2022-09-17T05:05:29.763Z,13.73
2022-09-17T05:08:32.403Z,13.66
2022-09-17T05:11:35.327Z,13.81
2022-09-17T05:14:37.861Z,13.81
2022-09-17T05:17:40.668Z,13.86
2022-09-17T05:20:43.423Z,13.79
2022-09-17T05:23:47.912Z,13.70
2022-09-17T05:26:50.452Z,13.86
2022-09-17T05:29:53.396Z,13.62
2022-09-17T05:33:03.820Z,13.68
2022-09-17T05:36:07.355Z,13.81
2022-09-17T05:39:09.952Z,13.75
2022-09-17T05:42:12.758Z,13.80
2022-09-17T05:45:15.220Z,13.90
2022-09-17T05:48:18.068Z,13.91
2022-09-17T05:51:20.562Z,13.86
2022-09-17T05:54:23.624Z,14.01
2022-09-17T05:57:29.271Z,13.99
2022-09-17T06:00:35.020Z,13.93
2022-09-17T06:03:37.961Z,13.91
2022-09-17T06:06:41.755Z,13.84
2022-09-17T06:09:45.024Z,14.01
2022-09-17T06:12:48.068Z,13.97
2022-09-17T06:15:52.173Z,14.08
2022-09-17T06:18:55.306Z,14.02
2022-09-17T06:22:02.127Z,14.00
2022-09-17T06:25:05.146Z,14.07
2022-09-17T06:28:08.018Z,14.13
2022-09-17T06:31:11.624Z,14.13
2022-09-17T06:34:14.470Z,14.17
2022-09-17T06:37:17.081Z,14.21
2022-09-17T06:40:20.006Z,14.31
2022-09-17T06:43:23.435Z,14.30
2022-09-17T06:46:26.692Z,14.33
2022-09-17T06:49:31.126Z,14.18
2022-09-17T06:52:34.288Z,14.18
2022-09-17T06:55:36.791Z,14.14
2022-09-17T06:58:43.736Z,14.17
2022-09-17T07:01:47.620Z,14.16
2022-09-17T07:04:50.498Z,14.13
2022-09-17T07:07:53.311Z,14.18
2022-09-17T07:10:58.145Z,14.13
2022-09-17T07:14:00.817Z,14.14
2022-09-17T07:17:03.793Z,14.12
2022-09-17T07:20:07.860Z,14.17
2022-09-17T07:23:10.948Z,14.25
2022-09-17T07:26:16.629Z,13.93
2022-09-17T07:29:20.679Z,14.10
2022-09-17T07:32:23.823Z,14.09
2022-09-17T07:35:26.600Z,14.08
2022-09-17T07:38:29.969Z,14.05
2022-09-17T07:41:34.407Z,14.13
2022-09-17T07:44:37.513Z,14.13
2022-09-17T07:47:41.524Z,14.19
2022-09-17T07:50:44.083Z,14.21
2022-09-17T07:53:47.913Z,14.41
2022-09-17T07:56:50.508Z,14.45
2022-09-17T07:59:53.360Z,14.41
2022-09-17T08:02:56.761Z,14.31
2022-09-17T08:06:08.356Z,14.46
2022-09-17T08:09:11.726Z,14.71
2022-09-17T08:12:14.566Z,14.83
2022-09-17T08:15:17.710Z,14.88
2022-09-17T08:18:20.512Z,14.95
2022-09-17T08:21:24.000Z,14.82
2022-09-17T08:24:27.680Z,14.76
2022-09-17T08:27:31.237Z,14.82
2022-09-17T08:30:34.420Z,14.77
2022-09-17T08:33:38.516Z,14.73
2022-09-17T08:36:41.265Z,14.84
2022-09-17T08:39:43.911Z,14.81
2022-09-17T08:42:55.001Z,14.86
2022-09-17T08:45:58.673Z,15.16
2022-09-17T08:49:08.194Z,15.17
2022-09-17T08:52:16.638Z,15.03
2022-09-17T08:55:35.262Z,15.08
2022-09-17T08:59:21.533Z,15.20
2022-09-17T09:02:43.547Z,15.20
2022-09-17T09:05:52.652Z,15.36
2022-09-17T09:08:59.875Z,15.21
2022-09-17T09:12:24.644Z,15.11
2022-09-17T09:15:35.018Z,15.13
2022-09-17T09:18:41.000Z,14.94
2022-09-17T09:21:49.105Z,15.00
2022-09-17T09:25:10.109Z,14.97
2022-09-17T09:28:31.942Z,15.01
2022-09-17T09:32:00.375Z,14.99
2022-09-17T09:35:15.046Z,14.92
2022-09-17T09:38:20.379Z,14.92
2022-09-17T09:41:26.157Z,14.73
2022-09-17T09:44:28.706Z,14.78
2022-09-17T09:47:54.620Z,14.91
2022-09-17T09:51:06.937Z,14.83
2022-09-17T09:54:32.314Z,15.05
2022-09-17T09:57:46.148Z,15.09
2022-09-17T10:00:49.368Z,14.94
2022-09-17T10:03:52.698Z,14.96
2022-09-17T10:07:10.392Z,14.83
2022-09-17T10:10:13.535Z,14.92
2022-09-17T10:13:17.854Z,14.93
2022-09-17T10:16:24.538Z,15.03
2022-09-17T10:19:27.163Z,14.88
2022-09-17T10:22:37.353Z,15.09
2022-09-17T10:25:43.619Z,15.01
2022-09-17T10:28:54.962Z,15.18
2022-09-17T10:31:58.241Z,15.21
2022-09-17T10:35:24.841Z,15.23
2022-09-17T10:38:39.123Z,15.22
2022-09-17T10:42:04.137Z,15.19
2022-09-17T10:45:26.986Z,15.50
2022-09-17T10:48:36.762Z,15.43
2022-09-17T10:51:39.392Z,15.39
2022-09-17T10:54:59.935Z,15.38
2022-09-17T10:58:08.661Z,15.45
2022-09-17T11:01:51.690Z,15.33
2022-09-17T11:05:02.710Z,15.45
2022-09-17T11:08:08.948Z,15.31
2022-09-17T11:11:24.486Z,15.27
2022-09-17T11:14:40.799Z,15.31
2022-09-17T11:17:56.017Z,15.24
2022-09-17T11:21:18.852Z,15.36
2022-09-17T11:24:48.899Z,15.49
2022-09-17T11:28:13.990Z,15.25
2022-09-17T11:31:32.181Z,15.15
2022-09-17T11:34:53.910Z,15.19
2022-09-17T11:38:00.080Z,15.28
2022-09-17T11:41:08.381Z,15.21
2022-09-17T11:44:39.039Z,15.09
2022-09-17T11:47:56.689Z,15.12
2022-09-17T11:51:05.256Z,15.09
2022-09-17T11:54:22.382Z,15.28
2022-09-17T11:57:32.750Z,14.98
2022-09-17T12:00:43.289Z,15.04
2022-09-17T12:04:20.079Z,14.93
2022-09-17T12:07:34.265Z,15.12
2022-09-17T12:11:18.555Z,14.98
2022-09-17T12:14:46.461Z,14.89
2022-09-17T12:18:30.695Z,14.88
2022-09-17T12:21:41.679Z,15.02
2022-09-17T12:24:44.605Z,14.98
2022-09-17T12:28:00.650Z,14.82
2022-09-17T12:31:36.617Z,14.87
2022-09-17T12:34:41.954Z,14.93
2022-09-17T12:38:18.043Z,14.96
2022-09-17T12:41:27.163Z,14.71
2022-09-17T12:44:35.511Z,14.80
2022-09-17T12:47:44.207Z,14.79
2022-09-17T12:50:55.652Z,14.72
2022-09-17T12:54:24.939Z,14.75
2022-09-17T12:58:03.353Z,14.88
2022-09-17T13:01:20.775Z,14.89
2022-09-17T13:04:49.853Z,14.89
2022-09-17T13:07:59.605Z,14.97
2022-09-17T13:11:17.997Z,14.98
2022-09-17T13:14:41.945Z,15.01
2022-09-17T13:18:25.594Z,14.93
2022-09-17T13:22:00.376Z,15.03
2022-09-17T13:25:08.689Z,14.77
2022-09-17T13:28:11.654Z,14.83
2022-09-17T13:31:23.726Z,14.73
2022-09-17T13:34:32.414Z,14.62
2022-09-17T13:37:36.467Z,14.63
2022-09-17T13:40:39.417Z,14.71
2022-09-17T13:43:46.329Z,14.70
2022-09-17T13:46:48.891Z,14.79
2022-09-17T13:50:27.203Z,14.75
2022-09-17T13:53:31.885Z,14.67
2022-09-17T13:56:43.075Z,14.64
2022-09-17T13:59:56.815Z,14.70
2022-09-17T14:03:31.537Z,14.47
2022-09-17T14:06:34.462Z,14.60
2022-09-17T14:09:56.469Z,14.51
2022-09-17T14:13:21.666Z,14.55
2022-09-17T14:16:40.726Z,14.39
2022-09-17T14:19:51.328Z,14.47
2022-09-17T14:23:03.647Z,14.38
2022-09-17T14:26:09.028Z,14.41
2022-09-17T14:29:24.721Z,14.42
2022-09-17T14:32:45.020Z,14.35
2022-09-17T14:35:50.285Z,14.27
2022-09-17T14:38:55.158Z,14.37
2022-09-17T14:41:58.669Z,14.62
2022-09-17T14:45:05.419Z,14.44
2022-09-17T14:48:31.242Z,14.44
2022-09-17T14:51:39.821Z,14.04
2022-09-17T14:54:44.661Z,14.16
2022-09-17T14:57:55.469Z,13.95
2022-09-17T15:00:59.989Z,13.98
2022-09-17T15:04:15.103Z,13.92
2022-09-17T15:07:17.543Z,13.97
2022-09-17T15:10:22.355Z,13.91
2022-09-17T15:13:30.413Z,13.76
2022-09-17T15:16:34.899Z,13.77
2022-09-17T15:19:40.100Z,13.93
2022-09-17T15:22:43.631Z,13.78
2022-09-17T15:25:47.846Z,13.78
2022-09-17T15:28:50.925Z,13.71
2022-09-17T15:31:53.671Z,13.70
2022-09-17T15:35:12.109Z,13.60
2022-09-17T15:38:25.302Z,13.74
2022-09-17T15:41:36.334Z,13.71
2022-09-17T15:44:38.889Z,13.70
2022-09-17T15:47:53.679Z,13.63
2022-09-17T15:50:58.840Z,13.74
2022-09-17T15:54:05.060Z,13.55
2022-09-17T15:57:14.327Z,13.70
2022-09-17T16:00:17.954Z,13.46
2022-09-17T16:03:39.456Z,13.56
2022-09-17T16:07:01.363Z,13.64
2022-09-17T16:10:05.294Z,13.38
2022-09-17T16:13:07.829Z,13.31
2022-09-17T16:16:18.608Z,13.33
2022-09-17T16:19:21.126Z,13.45
2022-09-17T16:22:24.324Z,13.45
2022-09-17T16:25:27.857Z,13.49
2022-09-17T16:28:31.146Z,13.50
2022-09-17T16:31:34.618Z,13.45
2022-09-17T16:34:37.481Z,13.50
2022-09-17T16:37:39.997Z,13.41
2022-09-17T16:40:45.100Z,13.41
2022-09-17T16:43:47.682Z,13.33
2022-09-17T16:46:50.541Z,13.28
2022-09-17T16:49:53.066Z,13.32
2022-09-17T16:53:00.435Z,13.30
2022-09-17T16:56:09.569Z,13.14
2022-09-17T16:59:12.953Z,13.22
2022-09-17T17:02:15.575Z,13.31
2022-09-17T17:05:20.891Z,13.38
2022-09-17T17:08:23.356Z,13.36
2022-09-17T17:11:27.996Z,13.40
2022-09-17T17:14:31.008Z,13.35
2022-09-17T17:17:35.829Z,13.38
2022-09-17T17:20:38.819Z,13.40
2022-09-17T17:23:43.792Z,13.39
2022-09-17T17:26:48.307Z,13.28
2022-09-17T17:29:51.777Z,13.24
2022-09-17T17:32:54.392Z,13.20
2022-09-17T17:36:07.473Z,13.26
2022-09-17T17:39:11.056Z,13.23
2022-09-17T17:42:13.976Z,13.26
2022-09-17T17:45:16.540Z,13.08
2022-09-17T17:48:19.365Z,13.20
2022-09-17T17:51:23.877Z,13.03
2022-09-17T17:54:28.062Z,13.01
2022-09-17T17:57:30.556Z,12.96
2022-09-17T18:00:33.698Z,12.92
2022-09-17T18:03:36.471Z,12.86
2022-09-17T18:06:39.365Z,12.93
2022-09-17T18:09:42.548Z,12.99
2022-09-17T18:12:50.542Z,13.06
2022-09-17T18:15:55.571Z,13.08
2022-09-17T18:18:58.385Z,13.12
2022-09-17T18:22:01.372Z,13.16
2022-09-17T18:25:04.122Z,13.10
2022-09-17T18:28:07.003Z,13.23
2022-09-17T18:31:19.520Z,13.13
2022-09-17T18:34:22.418Z,13.09
2022-09-17T18:37:24.980Z,13.06
2022-09-17T18:40:29.920Z,13.03
2022-09-17T18:43:35.992Z,13.07
2022-09-17T18:46:39.235Z,13.12
2022-09-17T18:49:41.794Z,13.05
2022-09-17T18:52:44.653Z,13.06
2022-09-17T18:55:47.174Z,13.05
2022-09-17T18:58:54.624Z,13.09
2022-09-17T19:01:58.633Z,13.13
2022-09-17T19:05:02.854Z,13.03
2022-09-17T19:08:05.464Z,12.90
2022-09-17T19:11:08.498Z,12.96
2022-09-17T19:14:11.209Z,12.85
2022-09-17T19:17:14.001Z,12.92
2022-09-17T19:20:19.739Z,12.83
2022-09-17T19:23:22.571Z,12.87
2022-09-17T19:26:27.075Z,12.81
2022-09-17T19:29:30.025Z,12.80
2022-09-17T19:32:32.973Z,12.84
2022-09-17T19:35:35.795Z,12.87
2022-09-17T19:38:38.768Z,12.87
2022-09-17T19:41:41.571Z,12.94
2022-09-17T19:44:44.169Z,12.90
2022-09-17T19:47:47.011Z,12.93
2022-09-17T19:50:51.782Z,12.93
2022-09-17T19:53:54.695Z,12.96
2022-09-17T19:56:57.258Z,13.02
2022-09-17T20:00:00.186Z,13.00
2022-09-17T20:03:03.641Z,13.01
2022-09-17T20:06:09.638Z,12.97
2022-09-17T20:09:12.159Z,13.01
2022-09-17T20:12:14.928Z,13.01
2022-09-17T20:15:18.232Z,13.01
2022-09-17T20:18:23.487Z,13.01
2022-09-17T20:21:28.782Z,12.99
2022-09-17T20:24:31.598Z,13.02
2022-09-17T20:27:34.137Z,13.02
2022-09-17T20:30:38.620Z,13.01
2022-09-17T20:33:41.710Z,13.02
2022-09-17T20:36:44.560Z,12.97
2022-09-17T20:39:47.089Z,12.96
2022-09-17T20:42:49.920Z,12.97
2022-09-17T20:45:54.202Z,12.94
2022-09-17T20:48:58.345Z,12.91
2022-09-17T20:52:01.115Z,12.89
2022-09-17T20:55:04.252Z,12.91
2022-09-17T20:58:07.555Z,12.90
2022-09-17T21:01:13.523Z,12.80
2022-09-17T21:04:21.912Z,12.76
2022-09-17T21:07:24.822Z,12.76
2022-09-17T21:10:27.415Z,12.64
2022-09-17T21:13:30.188Z,12.75
2022-09-17T21:16:32.893Z,12.78
2022-09-17T21:19:35.732Z,12.79
2022-09-17T21:22:38.251Z,12.81
2022-09-17T21:25:40.982Z,12.80
2022-09-17T21:28:45.309Z,12.74
2022-09-17T21:31:48.292Z,12.76
2022-09-17T21:34:51.261Z,12.74
2022-09-17T21:37:54.047Z,12.75
2022-09-17T21:40:57.454Z,12.71
2022-09-17T21:44:00.345Z,12.66
2022-09-17T21:47:02.863Z,12.64
2022-09-17T21:50:06.163Z,12.62
2022-09-17T21:53:09.325Z,12.58
2022-09-17T21:56:14.003Z,12.54
2022-09-17T21:59:17.355Z,12.53
2022-09-17T22:02:20.108Z,12.47
2022-09-17T22:05:22.940Z,12.48
2022-09-17T22:08:25.474Z,12.57
2022-09-17T22:11:30.501Z,12.60
2022-09-17T22:14:33.093Z,12.61
2022-09-17T22:17:36.632Z,12.35
2022-09-17T22:20:39.220Z,12.41
2022-09-17T22:23:41.986Z,12.30
2022-09-17T22:26:54.132Z,12.44
2022-09-17T22:30:00.225Z,12.34
2022-09-17T22:33:02.693Z,12.40
2022-09-17T22:36:10.859Z,12.23
2022-09-17T22:39:13.591Z,12.16
2022-09-17T22:42:16.675Z,12.24
2022-09-17T22:45:19.137Z,12.06
2022-09-17T22:48:21.947Z,12.06
2022-09-17T22:51:25.930Z,12.09
2022-09-17T22:54:28.711Z,11.93
2022-09-17T22:57:31.242Z,11.80
2022-09-17T23:00:34.244Z,11.78
2022-09-17T23:03:37.134Z,11.83
2022-09-17T23:06:42.210Z,11.60
2022-09-17T23:09:44.804Z,11.47
2022-09-17T23:12:47.626Z,11.32
2022-09-17T23:15:50.203Z,11.68
2022-09-17T23:18:53.094Z,11.66
2022-09-17T23:21:55.659Z,11.54
2022-09-17T23:24:58.573Z,11.60
2022-09-17T23:28:01.296Z,11.53
2022-09-17T23:31:12.851Z,11.63
2022-09-17T23:34:15.469Z,11.51
2022-09-17T23:37:19.569Z,11.36
2022-09-17T23:40:23.404Z,11.23
2022-09-17T23:43:26.279Z,11.29
2022-09-17T23:46:31.181Z,11.21
2022-09-17T23:49:34.284Z,11.13
2022-09-17T23:52:36.848Z,11.28
2022-09-17T23:55:46.526Z,11.25
2022-09-17T23:58:52.326Z,11.31
